createdAt,value
2018-07-26T00:01:23.169Z,2.10
2018-07-26T00:03:52.192Z,2.00
2018-07-26T00:06:21.298Z,2.40
2018-07-26T00:08:50.317Z,2.57
2018-07-26T00:11:19.371Z,2.50
2018-07-26T00:13:48.395Z,2.17
2018-07-26T00:16:17.584Z,2.33
2018-07-26T00:18:46.580Z,2.53
2018-07-26T00:21:15.585Z,2.77
2018-07-26T00:23:44.317Z,1.93
2018-07-26T00:26:13.227Z,2.00
2018-07-26T00:28:42.464Z,2.30
2018-07-26T00:31:11.466Z,2.00
2018-07-26T00:33:40.297Z,2.30
2018-07-26T00:36:09.199Z,2.17
2018-07-26T00:38:38.232Z,1.93
2018-07-26T00:41:06.972Z,2.10
2018-07-26T00:43:35.945Z,2.77
2018-07-26T00:46:05.013Z,2.53
2018-07-26T00:48:34.028Z,2.60
2018-07-26T00:51:03.097Z,2.73
2018-07-26T00:53:32.101Z,2.70
2018-07-26T00:56:01.114Z,2.50
2018-07-26T00:58:30.159Z,2.87
2018-07-26T01:00:59.152Z,2.63
2018-07-26T01:03:27.956Z,2.80
2018-07-26T01:05:56.559Z,3.00
2018-07-26T01:08:25.418Z,2.80
2018-07-26T01:10:54.426Z,3.10
2018-07-26T01:13:23.150Z,2.83
2018-07-26T01:15:52.038Z,2.40
2018-07-26T01:18:21.085Z,3.53
2018-07-26T01:20:49.836Z,2.90
2018-07-26T01:23:18.684Z,2.93
2018-07-26T01:25:47.746Z,2.67
2018-07-26T01:28:16.922Z,3.30
2018-07-26T01:30:46.022Z,2.80
2018-07-26T01:33:15.151Z,3.33
2018-07-26T01:35:43.966Z,3.63
2018-07-26T01:38:12.996Z,3.50
2018-07-26T01:40:42.775Z,3.40
2018-07-26T01:44:21.197Z,3.73
2018-07-26T01:46:50.291Z,3.07
2018-07-26T01:49:19.357Z,2.90
2018-07-26T01:51:48.449Z,3.20
2018-07-26T01:54:17.621Z,3.60
2018-07-26T01:56:46.663Z,3.67
2018-07-26T01:59:15.409Z,3.13
2018-07-26T02:01:44.594Z,4.23
2018-07-26T02:04:13.604Z,3.30
2018-07-26T02:06:42.653Z,3.97
2018-07-26T02:09:11.992Z,3.37
2018-07-26T02:11:41.073Z,3.33
2018-07-26T02:14:15.842Z,3.37
2018-07-26T02:16:44.978Z,3.90
2018-07-26T02:19:13.596Z,3.97
2018-07-26T02:21:42.531Z,3.37
2018-07-26T02:24:11.601Z,3.80
2018-07-26T02:26:40.620Z,4.03
2018-07-26T02:29:09.618Z,3.97
2018-07-26T02:31:38.615Z,3.70
2018-07-26T02:34:07.762Z,4.70
2018-07-26T02:36:36.872Z,4.23
2018-07-26T02:39:07.315Z,4.40
2018-07-26T02:41:36.079Z,3.90
2018-07-26T02:44:05.087Z,4.33
2018-07-26T02:46:33.808Z,3.77
2018-07-26T02:49:02.753Z,3.97
2018-07-26T02:51:31.770Z,4.23
2018-07-26T02:54:00.773Z,4.57
2018-07-26T02:56:29.766Z,4.23
2018-07-26T02:58:58.763Z,4.20
2018-07-26T03:01:27.745Z,4.60
2018-07-26T03:03:56.752Z,3.80
2018-07-26T03:06:25.806Z,3.83
2018-07-26T03:08:54.851Z,4.70
2018-07-26T03:11:23.940Z,4.80
2018-07-26T03:13:53.034Z,3.83
2018-07-26T03:16:22.064Z,4.80
2018-07-26T03:18:51.135Z,3.40
2018-07-26T03:21:20.129Z,4.37
2018-07-26T03:23:49.187Z,3.80
2018-07-26T03:26:18.208Z,5.03
2018-07-26T03:28:47.305Z,4.77
2018-07-26T03:31:16.294Z,5.00
2018-07-26T03:33:45.296Z,4.43
2018-07-26T03:36:14.436Z,3.83
2018-07-26T03:38:44.524Z,4.83
2018-07-26T03:41:13.502Z,4.77
2018-07-26T03:43:42.596Z,4.50
2018-07-26T03:46:11.591Z,4.50
2018-07-26T03:48:40.588Z,4.50
2018-07-26T03:51:09.637Z,4.53
2018-07-26T03:53:38.643Z,4.43
2018-07-26T03:56:07.666Z,4.43
2018-07-26T03:58:36.674Z,5.07
2018-07-26T04:01:05.673Z,3.93
2018-07-26T04:03:34.736Z,4.67
2018-07-26T04:06:03.920Z,4.80
2018-07-26T04:08:32.943Z,4.10
2018-07-26T04:11:01.991Z,4.50
2018-07-26T04:13:31.052Z,4.30
2018-07-26T04:16:00.095Z,4.73
2018-07-26T04:18:29.136Z,4.90
2018-07-26T04:20:58.146Z,4.40
2018-07-26T04:23:26.881Z,3.57
2018-07-26T04:25:55.881Z,4.17
2018-07-26T04:28:24.600Z,4.10
2018-07-26T04:30:53.493Z,4.67
2018-07-26T04:33:22.488Z,4.47
2018-07-26T04:35:51.511Z,4.43
2018-07-26T04:38:20.514Z,4.40
2018-07-26T04:40:49.605Z,4.40
2018-07-26T04:43:18.353Z,4.40
2018-07-26T04:45:47.280Z,4.50
2018-07-26T04:48:16.281Z,4.50
2018-07-26T04:50:45.378Z,3.83
2018-07-26T04:53:14.409Z,4.00
2018-07-26T04:55:43.413Z,4.20
2018-07-26T04:58:12.485Z,3.50
2018-07-26T05:00:41.530Z,4.50
2018-07-26T05:03:10.552Z,4.00
2018-07-26T05:05:39.584Z,4.37
2018-07-26T05:08:08.654Z,4.50
2018-07-26T05:10:37.608Z,4.47
2018-07-26T05:13:06.629Z,4.07
2018-07-26T05:15:35.692Z,5.77
2018-07-26T05:18:04.696Z,4.00
2018-07-26T05:20:33.649Z,4.23
2018-07-26T05:23:02.685Z,4.73
2018-07-26T05:25:31.770Z,4.27
2018-07-26T05:28:00.898Z,4.30
2018-07-26T05:30:29.911Z,4.43
2018-07-26T05:32:59.034Z,4.37
2018-07-26T05:35:28.009Z,3.60
2018-07-26T05:37:57.107Z,4.77
2018-07-26T05:40:26.201Z,4.40
2018-07-26T05:42:55.199Z,5.20
2018-07-26T05:45:24.246Z,4.50
2018-07-26T05:47:53.428Z,5.20
2018-07-26T05:50:22.542Z,4.40
2018-07-26T05:52:51.525Z,4.33
2018-07-26T05:55:20.598Z,4.60
2018-07-26T05:57:49.713Z,4.27
2018-07-26T06:00:18.460Z,4.80
2018-07-26T06:02:47.405Z,4.53
2018-07-26T06:05:16.492Z,4.30
2018-07-26T06:07:46.089Z,4.30
2018-07-26T06:10:15.302Z,4.40
2018-07-26T06:12:44.827Z,4.90
2018-07-26T06:15:13.887Z,4.70
2018-07-26T06:17:42.638Z,4.10
2018-07-26T06:20:12.349Z,4.00
2018-07-26T06:22:41.389Z,4.30
2018-07-26T06:25:10.524Z,4.30
2018-07-26T06:27:39.941Z,3.90
2018-07-26T06:30:10.874Z,4.53
2018-07-26T06:32:40.114Z,4.40
2018-07-26T06:35:09.973Z,4.23
2018-07-26T06:37:39.589Z,4.07
2018-07-26T06:40:08.838Z,3.90
2018-07-26T06:42:37.578Z,4.47
2018-07-26T06:45:07.573Z,4.37
2018-07-26T06:47:36.640Z,3.83
2018-07-26T06:50:07.475Z,4.70
2018-07-26T06:52:36.553Z,4.23
2018-07-26T06:55:05.496Z,4.33
2018-07-26T06:57:34.403Z,4.50
2018-07-26T07:00:04.897Z,3.67
2018-07-26T07:02:33.942Z,4.07
2018-07-26T07:05:02.985Z,4.77
2018-07-26T07:07:32.025Z,4.40
2018-07-26T07:10:01.221Z,3.27
2018-07-26T07:12:30.286Z,3.77
2018-07-26T07:14:59.473Z,3.30
2018-07-26T07:17:28.605Z,3.70
2018-07-26T07:19:57.686Z,3.57
2018-07-26T07:22:26.719Z,3.50
2018-07-26T07:24:55.452Z,3.77
2018-07-26T07:27:24.390Z,3.80
2018-07-26T07:29:53.424Z,4.23
2018-07-26T07:32:22.532Z,4.10
2018-07-26T07:34:51.614Z,4.17
2018-07-26T07:37:20.731Z,4.10
2018-07-26T07:39:49.800Z,4.17
2018-07-26T07:42:18.813Z,4.60
2018-07-26T07:44:47.899Z,3.70
2018-07-26T07:47:16.981Z,3.47
2018-07-26T07:49:45.787Z,3.70
2018-07-26T07:52:14.397Z,3.70
2018-07-26T07:54:43.321Z,3.87
2018-07-26T07:57:12.466Z,4.20
2018-07-26T07:59:41.655Z,3.60
2018-07-26T08:02:10.767Z,3.47
2018-07-26T08:04:39.821Z,3.40
2018-07-26T08:07:08.885Z,3.83
2018-07-26T08:09:37.925Z,3.80
2018-07-26T08:12:07.062Z,3.60
2018-07-26T08:14:36.091Z,3.47
2018-07-26T08:17:05.326Z,3.63
2018-07-26T08:19:34.508Z,3.43
2018-07-26T08:22:03.570Z,3.50
2018-07-26T08:24:32.597Z,3.60
2018-07-26T08:27:01.712Z,4.00
2018-07-26T08:29:30.872Z,3.50
2018-07-26T08:31:59.801Z,3.63
2018-07-26T08:34:28.817Z,3.83
2018-07-26T08:36:57.989Z,3.40
2018-07-26T08:39:27.083Z,3.60
2018-07-26T08:41:56.149Z,3.50
2018-07-26T08:44:25.274Z,3.33
2018-07-26T08:46:54.363Z,3.17
2018-07-26T08:49:23.419Z,2.90
2018-07-26T08:51:52.469Z,3.00
2018-07-26T08:54:21.514Z,3.10
2018-07-26T08:56:50.585Z,3.47
2018-07-26T08:59:19.638Z,2.73
2018-07-26T09:01:48.683Z,3.27
2018-07-26T09:04:17.429Z,2.97
2018-07-26T09:06:46.661Z,2.60
2018-07-26T09:09:15.714Z,3.40
2018-07-26T09:11:44.770Z,3.30
2018-07-26T09:14:13.793Z,3.07
2018-07-26T09:16:42.896Z,3.40
2018-07-26T09:19:12.018Z,2.60
2018-07-26T09:21:41.056Z,3.10
2018-07-26T09:24:10.116Z,2.97
2018-07-26T09:26:39.182Z,2.80
2018-07-26T09:29:08.197Z,2.90
2018-07-26T09:31:37.218Z,2.90
2018-07-26T09:34:06.462Z,2.83
2018-07-26T09:36:35.537Z,2.50
2018-07-26T09:39:10.263Z,2.73
2018-07-26T09:41:39.633Z,2.73
2018-07-26T09:44:08.742Z,2.77
2018-07-26T09:46:38.185Z,3.40
2018-07-26T09:49:07.328Z,3.13
2018-07-26T09:51:36.610Z,3.00
2018-07-26T09:54:05.964Z,3.20
2018-07-26T09:56:35.009Z,2.70
2018-07-26T09:59:04.084Z,3.20
2018-07-26T10:01:34.930Z,2.60
2018-07-26T10:04:04.026Z,3.33
2018-07-26T10:06:33.178Z,3.17
2018-07-26T10:09:02.236Z,3.00
2018-07-26T10:11:31.459Z,3.07
2018-07-26T10:14:00.640Z,3.43
2018-07-26T10:16:29.658Z,3.57
2018-07-26T10:18:58.688Z,2.60
2018-07-26T10:21:28.043Z,3.57
2018-07-26T10:23:57.086Z,2.80
2018-07-26T10:26:26.437Z,3.10
2018-07-26T10:28:55.442Z,2.47
2018-07-26T10:31:24.627Z,3.10
2018-07-26T10:33:53.684Z,3.20
2018-07-26T10:36:22.813Z,3.30
2018-07-26T10:38:51.930Z,2.80
2018-07-26T10:41:20.959Z,2.50
2018-07-26T10:43:49.997Z,2.20
2018-07-26T10:46:19.085Z,3.03
2018-07-26T10:48:48.152Z,2.43
2018-07-26T10:51:17.197Z,2.60
2018-07-26T10:53:46.191Z,2.33
2018-07-26T10:56:15.267Z,2.50
2018-07-26T10:58:44.459Z,2.50
2018-07-26T11:01:13.538Z,2.63
2018-07-26T11:03:42.761Z,2.60
2018-07-26T11:06:11.739Z,2.60
2018-07-26T11:08:40.862Z,2.17
2018-07-26T11:11:09.931Z,2.17
2018-07-26T11:13:39.053Z,2.37
2018-07-26T11:16:08.347Z,3.07
2018-07-26T11:18:37.139Z,2.60
2018-07-26T11:21:06.383Z,2.60
2018-07-26T11:23:35.510Z,2.87
2018-07-26T11:26:04.624Z,3.20
2018-07-26T11:28:33.715Z,2.50
2018-07-26T11:31:02.786Z,3.10
2018-07-26T11:33:31.891Z,3.37
2018-07-26T11:36:00.940Z,2.97
2018-07-26T11:38:30.187Z,3.80
2018-07-26T11:40:59.306Z,3.37
2018-07-26T11:43:28.085Z,3.13
2018-07-26T11:45:57.100Z,2.70
2018-07-26T11:48:26.154Z,3.07
2018-07-26T11:50:55.288Z,3.10
2018-07-26T11:53:24.368Z,3.20
2018-07-26T11:55:53.396Z,3.50
2018-07-26T11:58:22.465Z,3.00
2018-07-26T12:00:51.453Z,2.87
2018-07-26T12:03:20.200Z,2.70
2018-07-26T12:05:49.126Z,3.30
2018-07-26T12:08:18.154Z,2.70
2018-07-26T12:10:47.228Z,2.60
2018-07-26T12:13:16.277Z,2.23
2018-07-26T12:15:45.375Z,2.50
2018-07-26T12:18:14.411Z,3.00
2018-07-26T12:20:43.455Z,3.27
2018-07-26T12:23:12.553Z,3.10
2018-07-26T12:25:41.628Z,3.07
2018-07-26T12:28:10.689Z,2.60
2018-07-26T12:30:39.437Z,2.10
2018-07-26T12:33:08.382Z,2.60
2018-07-26T12:35:37.595Z,2.00
2018-07-26T12:38:06.757Z,2.23
2018-07-26T12:40:35.777Z,2.80
2018-07-26T12:43:05.547Z,2.70
2018-07-26T12:45:34.631Z,2.43
2018-07-26T12:48:03.834Z,2.60
2018-07-26T12:50:32.930Z,2.70
2018-07-26T12:53:01.759Z,2.70
2018-07-26T12:55:30.762Z,2.60
2018-07-26T12:57:59.854Z,2.83
2018-07-26T13:00:28.965Z,2.20
2018-07-26T13:02:58.041Z,2.73
2018-07-26T13:05:27.149Z,2.43
2018-07-26T13:07:56.592Z,3.23
2018-07-26T13:10:25.889Z,2.40
2018-07-26T13:12:55.084Z,8.03
2018-07-26T13:15:24.212Z,2.53
2018-07-26T13:17:53.382Z,2.73
2018-07-26T13:20:22.491Z,2.50
2018-07-26T13:22:51.528Z,2.53
2018-07-26T13:25:20.623Z,3.10
2018-07-26T13:27:49.651Z,2.77
2018-07-26T13:30:18.799Z,2.27
2018-07-26T13:32:47.868Z,2.37
2018-07-26T13:35:16.981Z,1.80
2018-07-26T13:37:46.020Z,2.57
2018-07-26T13:40:15.235Z,2.20
2018-07-26T13:42:44.319Z,2.20
2018-07-26T13:45:13.361Z,2.40
2018-07-26T13:47:42.500Z,2.33
2018-07-26T13:50:11.577Z,2.70
2018-07-26T13:52:40.657Z,1.67
2018-07-26T13:55:09.722Z,2.20
2018-07-26T13:57:39.026Z,1.70
2018-07-26T14:00:08.243Z,2.17
2018-07-26T14:02:37.470Z,1.80
2018-07-26T14:05:06.586Z,2.00
2018-07-26T14:07:35.683Z,1.90
2018-07-26T14:10:06.103Z,2.47
2018-07-26T14:12:35.442Z,2.20
2018-07-26T14:15:05.551Z,2.20
2018-07-26T14:17:34.634Z,2.20
2018-07-26T14:20:04.528Z,2.40
2018-07-26T14:22:33.290Z,3.90
2018-07-26T14:25:02.309Z,2.47
2018-07-26T14:27:31.377Z,2.33
2018-07-26T14:30:00.445Z,2.97
2018-07-26T14:32:29.565Z,2.50
2018-07-26T14:35:01.635Z,2.53
2018-07-26T14:37:30.697Z,1.97
2018-07-26T14:40:00.110Z,2.20
2018-07-26T14:42:29.395Z,1.90
2018-07-26T14:44:58.216Z,2.47
2018-07-26T14:47:27.810Z,2.47
2018-07-26T14:49:56.852Z,2.20
2018-07-26T14:52:25.975Z,2.30
2018-07-26T14:54:54.711Z,2.20
2018-07-26T14:57:23.721Z,2.17
2018-07-26T14:59:52.748Z,1.90
2018-07-26T15:02:21.803Z,2.30
2018-07-26T15:04:51.016Z,2.23
2018-07-26T15:07:20.063Z,2.03
2018-07-26T15:09:49.191Z,2.30
2018-07-26T15:12:18.204Z,2.30
2018-07-26T15:14:47.266Z,2.20
2018-07-26T15:17:16.380Z,2.30
2018-07-26T15:19:45.410Z,2.43
2018-07-26T15:22:14.489Z,2.53
2018-07-26T15:24:43.572Z,2.10
2018-07-26T15:27:12.598Z,2.80
2018-07-26T15:29:41.444Z,2.47
2018-07-26T15:32:10.451Z,1.80
2018-07-26T15:34:39.530Z,2.60
2018-07-26T15:37:08.677Z,3.40
2018-07-26T15:39:37.802Z,3.40
2018-07-26T15:42:07.027Z,2.80
2018-07-26T15:44:36.160Z,2.37
2018-07-26T15:47:05.286Z,2.27
2018-07-26T15:49:34.357Z,2.60
2018-07-26T15:52:03.414Z,2.70
2018-07-26T15:54:32.458Z,2.80
2018-07-26T15:57:02.510Z,3.30
2018-07-26T15:59:31.577Z,2.90
2018-07-26T16:02:00.707Z,3.37
2018-07-26T16:04:29.818Z,3.70
2018-07-26T16:06:58.957Z,2.67
2018-07-26T16:09:27.730Z,3.20
2018-07-26T16:11:56.733Z,2.80
2018-07-26T16:14:25.875Z,3.33
2018-07-26T16:16:54.892Z,2.90
2018-07-26T16:19:23.993Z,2.50
2018-07-26T16:21:53.080Z,3.43
2018-07-26T16:24:21.889Z,2.67
2018-07-26T16:26:50.869Z,2.90
2018-07-26T16:29:19.947Z,2.80
2018-07-26T16:31:48.961Z,5.33
2018-07-26T16:34:17.697Z,3.63
2018-07-26T16:36:46.687Z,2.80
2018-07-26T16:39:15.800Z,2.80
2018-07-26T16:41:44.865Z,2.50
2018-07-26T16:44:13.583Z,2.70
2018-07-26T16:46:42.522Z,2.53
2018-07-26T16:49:11.606Z,2.70
2018-07-26T16:51:40.787Z,3.00
2018-07-26T16:54:10.074Z,2.63
2018-07-26T16:56:39.334Z,3.30
2018-07-26T16:59:08.680Z,4.13
2018-07-26T17:01:38.428Z,3.77
2018-07-26T17:04:07.588Z,2.70
2018-07-26T17:06:36.923Z,2.87
2018-07-26T17:09:08.942Z,3.10
2018-07-26T17:11:39.366Z,3.20
2018-07-26T17:14:08.579Z,3.73
2018-07-26T17:16:38.239Z,3.70
2018-07-26T17:19:07.467Z,3.00
2018-07-26T17:21:36.457Z,3.90
2018-07-26T17:24:05.512Z,2.93
2018-07-26T17:26:34.537Z,3.03
2018-07-26T17:29:03.743Z,3.03
2018-07-26T17:31:32.799Z,2.80
2018-07-26T17:34:01.854Z,3.77
2018-07-26T17:36:30.938Z,3.63
2018-07-26T17:39:00.681Z,3.43
2018-07-26T17:41:29.650Z,2.80
2018-07-26T17:43:58.702Z,2.90
2018-07-26T17:46:27.744Z,2.97
2018-07-26T17:48:56.760Z,3.40
2018-07-26T17:51:25.837Z,2.90
2018-07-26T17:53:54.870Z,3.10
2018-07-26T17:56:23.953Z,2.70
2018-07-26T17:58:53.509Z,3.60
2018-07-26T18:01:22.530Z,3.30
2018-07-26T18:03:51.525Z,2.63
2018-07-26T18:06:20.615Z,3.17
2018-07-26T18:08:49.730Z,4.73
2018-07-26T18:11:18.812Z,3.20
2018-07-26T18:13:47.894Z,3.47
2018-07-26T18:16:16.958Z,3.00
2018-07-26T18:18:46.057Z,3.30
2018-07-26T18:21:15.155Z,3.60
2018-07-26T18:23:44.322Z,2.63
2018-07-26T18:26:13.445Z,3.00
2018-07-26T18:28:42.177Z,2.53
2018-07-26T18:31:11.117Z,3.07
2018-07-26T18:33:40.672Z,3.30
2018-07-26T18:36:09.721Z,3.13
2018-07-26T18:38:38.764Z,3.40
2018-07-26T18:41:07.836Z,2.80
2018-07-26T18:43:36.898Z,3.70
2018-07-26T18:46:06.101Z,3.27
2018-07-26T18:48:35.137Z,2.53
2018-07-26T18:51:04.258Z,2.70
2018-07-26T18:53:33.387Z,3.20
2018-07-26T18:56:02.539Z,3.20
2018-07-26T18:58:31.814Z,4.07
2018-07-26T19:01:00.608Z,2.70
2018-07-26T19:03:29.535Z,3.20
2018-07-26T19:05:58.587Z,2.73
2018-07-26T19:08:28.483Z,3.33
2018-07-26T19:10:57.529Z,3.80
2018-07-26T19:13:26.585Z,3.17
2018-07-26T19:15:55.692Z,3.23
2018-07-26T19:18:25.299Z,3.40
2018-07-26T19:20:54.347Z,2.80
2018-07-26T19:23:23.449Z,3.27
2018-07-26T19:25:52.583Z,3.40
2018-07-26T19:28:21.589Z,3.27
2018-07-26T19:30:50.652Z,3.63
2018-07-26T19:33:19.703Z,4.07
2018-07-26T19:35:48.749Z,3.73
2018-07-26T19:38:17.761Z,3.50
2018-07-26T19:40:46.837Z,4.17
2018-07-26T19:43:16.052Z,3.60
2018-07-26T19:45:45.269Z,4.20
2018-07-26T19:48:14.419Z,3.40
2018-07-26T19:50:43.689Z,3.87
2018-07-26T19:53:12.751Z,3.00
2018-07-26T19:55:42.001Z,3.80
2018-07-26T19:58:11.045Z,3.23
2018-07-26T20:00:40.237Z,4.20
2018-07-26T20:03:09.330Z,3.43
2018-07-26T20:05:38.349Z,4.13
2018-07-26T20:08:07.936Z,3.63
2018-07-26T20:10:37.085Z,3.47
2018-07-26T20:13:06.222Z,5.87
2018-07-26T20:15:35.270Z,4.87
2018-07-26T20:18:04.120Z,3.67
2018-07-26T20:20:32.762Z,3.90
2018-07-26T20:23:01.863Z,3.20
2018-07-26T20:25:30.665Z,4.50
2018-07-26T20:27:59.601Z,4.70
2018-07-26T20:30:28.664Z,4.67
2018-07-26T20:32:57.693Z,4.27
2018-07-26T20:35:26.827Z,4.17
2018-07-26T20:37:55.884Z,4.90
2018-07-26T20:40:25.453Z,3.97
2018-07-26T20:42:54.540Z,4.43
2018-07-26T20:45:23.625Z,4.20
2018-07-26T20:47:52.648Z,4.30
2018-07-26T20:50:21.696Z,3.87
2018-07-26T20:52:50.865Z,3.87
2018-07-26T20:55:19.946Z,4.13
2018-07-26T20:57:48.970Z,4.40
2018-07-26T21:00:18.101Z,4.70
2018-07-26T21:02:47.106Z,4.27
2018-07-26T21:05:16.170Z,5.77
2018-07-26T21:07:45.194Z,5.40
2018-07-26T21:10:14.249Z,6.13
2018-07-26T21:12:43.312Z,5.93
2018-07-26T21:15:12.451Z,5.90
2018-07-26T21:17:41.474Z,5.53
2018-07-26T21:20:10.600Z,5.50
2018-07-26T21:22:39.656Z,5.47
2018-07-26T21:25:08.717Z,5.20
2018-07-26T21:27:37.741Z,4.47
2018-07-26T21:30:07.277Z,4.70
2018-07-26T21:32:36.571Z,4.27
2018-07-26T21:35:06.753Z,5.03
2018-07-26T21:37:36.112Z,4.70
2018-07-26T21:40:06.098Z,4.63
2018-07-26T21:42:35.541Z,4.70
2018-07-26T21:45:05.085Z,5.20
2018-07-26T21:47:34.144Z,4.70
2018-07-26T21:50:03.273Z,4.80
2018-07-26T21:52:32.536Z,4.50
2018-07-26T21:55:01.732Z,4.93
2018-07-26T21:57:30.784Z,5.00
2018-07-26T21:59:59.829Z,5.27
2018-07-26T22:02:28.910Z,4.70
2018-07-26T22:05:00.882Z,4.83
2018-07-26T22:07:30.120Z,4.87
2018-07-26T22:09:59.170Z,4.93
2018-07-26T22:12:29.117Z,4.53
2018-07-26T22:14:58.246Z,5.47
2018-07-26T22:17:27.230Z,4.70
2018-07-26T22:19:56.235Z,5.77
2018-07-26T22:22:25.470Z,5.17
2018-07-26T22:24:54.507Z,4.43
2018-07-26T22:27:23.604Z,5.50
2018-07-26T22:29:52.400Z,4.63
2018-07-26T22:32:21.325Z,4.80
2018-07-26T22:34:50.697Z,4.60
2018-07-26T22:37:19.818Z,4.90
2018-07-26T22:39:48.885Z,5.17
2018-07-26T22:42:17.941Z,5.50
2018-07-26T22:44:46.975Z,5.90
2018-07-26T22:47:16.204Z,5.37
2018-07-26T22:49:45.236Z,4.97
2018-07-26T22:52:14.333Z,4.63
2018-07-26T22:54:43.365Z,4.90
2018-07-26T22:57:12.418Z,5.00
2018-07-26T22:59:41.430Z,4.40
2018-07-26T23:02:10.489Z,5.57
2018-07-26T23:04:39.538Z,5.60
2018-07-26T23:07:08.764Z,5.53
2018-07-26T23:09:37.803Z,5.47
2018-07-26T23:12:06.886Z,5.30
2018-07-26T23:14:35.918Z,4.67
2018-07-26T23:17:04.951Z,4.60
2018-07-26T23:19:34.148Z,4.93
2018-07-26T23:22:03.193Z,4.80
2018-07-26T23:24:32.328Z,4.23
2018-07-26T23:27:01.354Z,4.43
2018-07-26T23:29:30.525Z,4.03
2018-07-26T23:31:59.543Z,4.30
2018-07-26T23:34:28.274Z,4.17
2018-07-26T23:36:57.153Z,4.27
2018-07-26T23:39:26.151Z,4.00
2018-07-26T23:41:55.291Z,4.57
2018-07-26T23:44:24.317Z,4.23
2018-07-26T23:46:53.619Z,4.00
2018-07-26T23:49:22.600Z,4.83
2018-07-26T23:51:51.658Z,4.80
2018-07-26T23:54:20.689Z,3.73
2018-07-26T23:56:49.431Z,5.60
2018-07-26T23:59:18.369Z,3.93
